Time;durP1;ratioP1;P1;durP2;ratioP2;P2;SDS_P1;SDS_P2;PMS_P1;PMS_P2;Temp;Humidity;BMP_temperature;BMP_pressure;BME280_temperature;BME280_humidity;BME280_pressure;Samples;Min_cycle;Max_cycle;Signal;HPM_P1;HPM_P2
2021/11/07 00:00:12;;;;;;;1.17;1.17;;;10.00;99.90;;;;;;5100068;28;20622;-82
2021/11/07 00:02:54;;;;;;;7.13;1.70;;;10.00;99.90;;;;;;5101508;28;20177;-82
2021/11/07 00:05:28;;;;;;;0.77;0.77;;;10.00;99.90;;;;;;5100716;28;20221;-83
2021/11/07 00:08:07;;;;;;;1.50;1.15;;;9.90;99.90;;;;;;5101292;28;20569;-84
2021/11/07 00:10:40;;;;;;;3.60;1.60;;;9.80;99.90;;;;;;5101376;28;20230;-84
2021/11/07 00:13:14;;;;;;;1.52;1.42;;;9.60;99.90;;;;;;5101119;28;20204;-84
2021/11/07 00:15:42;;;;;;;1.45;1.30;;;9.40;99.90;;;;;;5100664;28;20245;-84
2021/11/07 00:18:11;;;;;;;10.80;2.13;;;9.30;99.90;;;;;;5100961;28;20223;-84
2021/11/07 00:20:44;;;;;;;0.90;0.90;;;9.10;99.90;;;;;;5100132;28;20193;-85
2021/11/07 00:23:19;;;;;;;1.98;1.23;;;9.00;99.90;;;;;;5099800;28;20185;-85
2021/11/07 00:25:50;;;;;;;0.50;0.40;;;9.00;99.90;;;;;;5100661;28;20229;-84
2021/11/07 00:28:23;;;;;;;0.80;0.80;;;8.90;99.90;;;;;;5099601;28;20535;-84
2021/11/07 00:30:57;;;;;;;4.20;3.90;;;8.90;99.90;;;;;;5098993;28;20189;-83
2021/11/07 00:33:29;;;;;;;0.50;0.50;;;8.80;99.90;;;;;;5103986;28;20216;-83
2021/11/07 00:36:11;;;;;;;1.35;1.25;;;8.80;99.90;;;;;;5102193;28;20288;-82
2021/11/07 00:38:45;;;;;;;0.90;0.90;;;8.80;99.90;;;;;;5102945;28;20683;-84
2021/11/07 00:41:24;;;;;;;1.63;1.52;;;8.70;99.90;;;;;;5104720;28;20196;-82
2021/11/07 00:43:56;;;;;;;1.40;1.30;;;8.70;99.90;;;;;;5105329;28;20614;-82
2021/11/07 00:46:27;;;;;;;1.90;1.58;;;8.70;99.90;;;;;;5103871;28;20227;-82
2021/11/07 00:48:57;;;;;;;1.92;1.83;;;8.70;99.90;;;;;;5103294;28;20289;-83
2021/11/07 00:51:29;;;;;;;0.90;0.80;;;8.60;99.90;;;;;;5104704;28;20603;-81
2021/11/07 00:54:06;;;;;;;2.00;1.90;;;8.60;99.90;;;;;;5104365;28;20281;-83
2021/11/07 00:56:38;;;;;;;2.13;2.00;;;8.60;99.90;;;;;;5105073;28;20230;-82
2021/11/07 00:59:18;;;;;;;2.97;2.78;;;8.50;99.90;;;;;;5105216;28;20564;-81
2021/11/07 01:01:50;;;;;;;2.85;2.22;;;8.60;99.90;;;;;;5105299;28;20249;-81
2021/11/07 01:04:17;;;;;;;1.60;1.30;;;8.50;99.90;;;;;;5106206;28;20200;-82
2021/11/07 01:06:44;;;;;;;5.13;3.13;;;8.50;99.90;;;;;;5104770;28;20237;-82
2021/11/07 01:09:13;;;;;;;1.95;1.85;;;8.50;99.90;;;;;;5105334;28;20277;-80
2021/11/07 01:11:42;;;;;;;1.30;1.20;;;8.50;99.90;;;;;;5104929;28;20570;-82
2021/11/07 01:14:11;;;;;;;2.67;2.47;;;8.50;99.90;;;;;;5105874;28;20215;-81
2021/11/07 01:16:38;;;;;;;2.10;2.00;;;8.50;99.90;;;;;;5105117;28;20649;-83
2021/11/07 01:19:06;;;;;;;3.22;3.03;;;8.40;99.90;;;;;;5100640;28;20196;-82
2021/11/07 01:21:36;;;;;;;3.38;2.60;;;8.40;99.90;;;;;;5099034;28;20219;-83
2021/11/07 01:24:05;;;;;;;4.82;4.35;;;8.40;99.90;;;;;;5099246;28;20224;-83
2021/11/07 01:26:34;;;;;;;4.03;3.50;;;8.40;99.90;;;;;;5100100;28;20278;-81
2021/11/07 01:29:10;;;;;;;1.67;1.58;;;8.40;99.90;;;;;;5102030;28;20687;-83
2021/11/07 01:31:38;;;;;;;2.42;2.25;;;8.40;99.90;;;;;;5099357;28;20181;-83
2021/11/07 01:34:06;;;;;;;5.82;2.50;;;8.40;99.90;;;;;;5098925;28;20212;-83
2021/11/07 01:36:39;;;;;;;3.42;2.67;;;8.50;99.90;;;;;;5098827;28;20771;-83
2021/11/07 01:39:12;;;;;;;6.82;4.00;;;8.40;99.90;;;;;;5098854;28;20207;-83
2021/11/07 01:41:45;;;;;;;8.07;4.70;;;8.40;99.90;;;;;;5097976;28;20257;-83
2021/11/07 01:44:14;;;;;;;3.63;2.85;;;8.40;99.90;;;;;;5098493;28;20602;-83
2021/11/07 01:46:45;;;;;;;2.63;2.40;;;8.40;99.90;;;;;;5098389;28;20225;-83
2021/11/07 01:49:16;;;;;;;2.67;2.45;;;8.50;99.90;;;;;;5098501;28;20183;-82
2021/11/07 01:51:47;;;;;;;1.77;1.67;;;8.50;99.90;;;;;;5098309;28;20177;-83
2021/11/07 01:54:23;;;;;;;3.65;2.08;;;8.50;99.90;;;;;;5098307;28;20291;-84
2021/11/07 01:56:50;;;;;;;2.70;2.50;;;8.50;99.90;;;;;;5098107;28;20222;-83
2021/11/07 01:59:19;;;;;;;4.25;3.83;;;8.50;99.90;;;;;;5098363;28;20191;-84
2021/11/07 02:01:50;;;;;;;3.58;3.22;;;8.50;99.90;;;;;;5098360;28;20206;-84
2021/11/07 02:04:20;;;;;;;2.55;2.35;;;8.50;99.90;;;;;;5097905;28;20220;-84
2021/11/07 02:06:47;;;;;;;4.15;3.75;;;8.60;99.90;;;;;;5098342;28;20735;-84
2021/11/07 02:09:14;;;;;;;2.70;2.50;;;8.60;99.90;;;;;;5098610;28;20279;-83
2021/11/07 02:11:41;;;;;;;10.43;2.90;;;8.60;99.90;;;;;;5098571;28;20192;-84
2021/11/07 02:14:09;;;;;;;1.95;1.15;;;8.60;99.90;;;;;;5098284;28;20222;-82
2021/11/07 02:16:39;;;;;;;5.45;3.13;;;8.60;99.90;;;;;;5099223;28;20641;-84
2021/11/07 02:19:05;;;;;;;2.08;1.50;;;8.60;99.90;;;;;;5104990;28;20196;-81
2021/11/07 02:21:34;;;;;;;4.65;4.18;;;8.60;99.90;;;;;;5106667;28;20204;-84
2021/11/07 02:24:01;;;;;;;5.05;3.50;;;8.70;99.90;;;;;;5106130;28;20216;-83
2021/11/07 02:26:28;;;;;;;6.18;5.65;;;8.70;99.90;;;;;;5104238;28;20221;-83
2021/11/07 02:28:55;;;;;;;3.03;2.58;;;8.70;99.90;;;;;;5105311;28;20195;-83
2021/11/07 02:31:22;;;;;;;5.70;3.10;;;8.70;99.90;;;;;;5103994;28;20216;-84
2021/11/07 02:33:49;;;;;;;3.08;2.38;;;8.70;99.90;;;;;;5105654;28;20221;-84
2021/11/07 02:36:18;;;;;;;3.72;2.78;;;8.70;99.90;;;;;;5104028;28;20222;-84
2021/11/07 02:38:47;;;;;;;8.73;4.88;;;8.80;99.90;;;;;;5105331;28;20561;-84
2021/11/07 02:41:16;;;;;;;1.92;1.75;;;8.80;99.90;;;;;;5104161;28;20226;-84
2021/11/07 02:43:46;;;;;;;3.30;1.95;;;8.80;99.90;;;;;;5104680;28;20211;-85
2021/11/07 02:46:17;;;;;;;10.10;5.28;;;8.70;99.90;;;;;;5104737;28;20724;-84
2021/11/07 02:48:44;;;;;;;3.90;3.53;;;8.80;99.90;;;;;;5106711;28;20198;-83
2021/11/07 02:51:11;;;;;;;32.10;3.30;;;8.80;99.90;;;;;;5099636;28;20198;-84
2021/11/07 02:53:39;;;;;;;3.58;2.92;;;8.80;99.90;;;;;;5097388;28;20206;-84
2021/11/07 02:56:08;;;;;;;3.35;1.00;;;8.80;99.90;;;;;;5098877;28;20247;-84
2021/11/07 02:58:35;;;;;;;57.15;5.03;;;8.80;99.90;;;;;;5098795;28;20199;-84
2021/11/07 03:01:03;;;;;;;5.20;2.47;;;8.80;99.90;;;;;;5097923;28;20664;-83
2021/11/07 03:03:30;;;;;;;4.10;3.22;;;8.80;99.90;;;;;;5100648;28;20194;-83
2021/11/07 03:06:00;;;;;;;1.50;1.40;;;8.80;99.90;;;;;;5098241;28;20433;-82
2021/11/07 03:08:27;;;;;;;3.85;2.30;;;8.80;99.90;;;;;;5099201;28;20213;-83
2021/11/07 03:10:54;;;;;;;1.33;1.15;;;8.80;99.90;;;;;;5098251;28;20199;-83
2021/11/07 03:13:22;;;;;;;2.67;2.53;;;8.90;99.90;;;;;;5098286;28;20294;-83
2021/11/07 03:15:49;;;;;;;0.57;0.57;;;8.90;99.90;;;;;;5099985;28;20222;-83
2021/11/07 03:18:15;;;;;;;3.25;3.03;;;8.90;99.90;;;;;;5100270;28;20195;-83
2021/11/07 03:20:42;;;;;;;1.45;1.30;;;8.90;99.90;;;;;;5105986;28;20555;-83
2021/11/07 03:23:09;;;;;;;5.18;4.30;;;8.90;99.90;;;;;;5103718;28;20194;-83
2021/11/07 03:25:46;;;;;;;3.60;2.85;;;9.00;99.90;;;;;;5105472;28;20216;-83
2021/11/07 03:28:13;;;;;;;2.78;2.00;;;8.90;99.90;;;;;;5099954;28;20237;-83
2021/11/07 03:30:48;;;;;;;2.00;1.67;;;9.00;99.90;;;;;;5098409;28;20642;-83
2021/11/07 03:33:21;;;;;;;3.63;3.42;;;9.00;99.90;;;;;;5098195;28;20629;-83
2021/11/07 03:35:49;;;;;;;2.25;2.05;;;9.00;99.90;;;;;;5103881;28;20697;-83
2021/11/07 03:38:16;;;;;;;3.42;3.22;;;9.00;99.90;;;;;;5108831;28;20190;-83
2021/11/07 03:40:43;;;;;;;4.43;1.83;;;9.00;99.90;;;;;;5110352;28;20192;-82
2021/11/07 03:43:10;;;;;;;5.95;5.45;;;9.10;99.90;;;;;;5112535;28;20199;-83
2021/11/07 03:45:37;;;;;;;4.72;3.72;;;9.10;99.90;;;;;;5112593;28;20223;-82
2021/11/07 03:48:06;;;;;;;4.80;4.05;;;9.10;99.90;;;;;;5110598;28;20205;-82
2021/11/07 03:50:33;;;;;;;13.60;6.70;;;9.10;99.90;;;;;;5108557;28;20200;-83
2021/11/07 03:53:00;;;;;;;5.70;5.15;;;9.20;99.90;;;;;;5108098;28;20207;-84
2021/11/07 03:55:27;;;;;;;5.43;2.17;;;9.20;99.90;;;;;;5107711;28;20234;-83
2021/11/07 03:57:54;;;;;;;1.50;1.50;;;9.20;99.90;;;;;;5107572;28;20497;-84
2021/11/07 04:00:22;;;;;;;7.80;4.47;;;9.20;99.90;;;;;;5106253;28;20215;-80
2021/11/07 04:02:50;;;;;;;5.05;3.65;;;9.20;99.90;;;;;;5101518;28;20274;-83
2021/11/07 04:05:19;;;;;;;8.88;2.45;;;9.20;99.90;;;;;;5100526;28;20209;-84
2021/11/07 04:07:46;;;;;;;5.20;3.70;;;9.30;99.90;;;;;;5100533;28;20197;-84
2021/11/07 04:10:14;;;;;;;2.83;2.60;;;9.30;99.90;;;;;;5100157;28;20204;-83
2021/11/07 04:12:40;;;;;;;3.53;3.15;;;9.30;99.90;;;;;;5100084;28;20238;-84
2021/11/07 04:15:09;;;;;;;2.03;1.85;;;9.30;99.90;;;;;;5100277;28;20212;-84
2021/11/07 04:17:36;;;;;;;2.75;2.55;;;9.40;99.90;;;;;;5105250;28;20203;-83
2021/11/07 04:20:05;;;;;;;3.15;1.92;;;9.40;99.90;;;;;;5110928;28;20204;-81
2021/11/07 04:22:33;;;;;;;3.58;3.22;;;9.40;99.90;;;;;;5111169;28;20206;-83
2021/11/07 04:25:00;;;;;;;2.65;2.13;;;9.40;99.90;;;;;;5109713;28;20208;-83
2021/11/07 04:27:27;;;;;;;3.28;2.97;;;9.40;99.90;;;;;;5106899;28;20200;-84
2021/11/07 04:29:54;;;;;;;2.88;2.67;;;9.50;99.90;;;;;;5109737;28;20206;-83
2021/11/07 04:32:21;;;;;;;3.25;2.92;;;9.40;99.90;;;;;;5108083;28;20196;-83
2021/11/07 04:34:47;;;;;;;1.63;1.48;;;9.40;99.90;;;;;;5108097;28;20215;-82
2021/11/07 04:37:14;;;;;;;1.02;0.93;;;9.40;99.90;;;;;;5107842;28;20223;-83
2021/11/07 04:39:43;;;;;;;3.53;3.03;;;9.50;99.90;;;;;;5108722;28;20201;-82
2021/11/07 04:42:10;;;;;;;6.50;4.22;;;9.50;99.90;;;;;;5108094;28;20200;-83
2021/11/07 04:44:37;;;;;;;2.30;2.20;;;9.40;99.90;;;;;;5108217;28;20187;-82
2021/11/07 04:47:04;;;;;;;8.50;5.10;;;9.50;99.90;;;;;;5108353;28;20227;-82
2021/11/07 04:49:31;;;;;;;1.67;1.13;;;9.50;99.90;;;;;;5108392;28;20203;-82
2021/11/07 04:51:59;;;;;;;3.45;3.10;;;9.50;99.90;;;;;;5101240;28;20193;-83
2021/11/07 04:54:27;;;;;;;3.85;3.45;;;9.50;99.90;;;;;;5098837;28;20239;-83
2021/11/07 04:56:55;;;;;;;5.03;4.47;;;9.50;99.90;;;;;;5099130;28;20228;-82
2021/11/07 04:59:22;;;;;;;3.22;2.55;;;9.50;99.90;;;;;;5098940;28;20196;-83
2021/11/07 05:01:49;;;;;;;2.50;2.30;;;9.50;99.90;;;;;;5098724;28;20663;-83
2021/11/07 05:04:17;;;;;;;2.97;2.72;;;9.50;99.90;;;;;;5098658;28;20203;-83
2021/11/07 05:06:45;;;;;;;2.38;2.17;;;9.50;99.90;;;;;;5098415;28;20221;-83
2021/11/07 05:09:12;;;;;;;16.58;3.80;;;9.50;99.90;;;;;;5098396;28;20200;-83
2021/11/07 05:11:38;;;;;;;3.42;1.50;;;9.50;99.90;;;;;;5098385;28;20592;-83
2021/11/07 05:14:06;;;;;;;6.43;5.80;;;9.50;99.90;;;;;;5098062;28;20207;-82
2021/11/07 05:16:33;;;;;;;7.78;4.22;;;9.50;99.90;;;;;;5099289;28;20239;-83
2021/11/07 05:19:01;;;;;;;2.70;2.55;;;9.50;99.90;;;;;;5098931;28;20196;-83
2021/11/07 05:21:28;;;;;;;1.75;1.65;;;9.50;99.90;;;;;;5098439;28;20235;-83
2021/11/07 05:23:54;;;;;;;4.25;3.95;;;9.50;99.90;;;;;;5098530;28;20205;-82
2021/11/07 05:26:21;;;;;;;3.90;2.50;;;9.50;99.90;;;;;;5098365;28;20218;-83
2021/11/07 05:28:48;;;;;;;5.20;3.95;;;9.50;99.90;;;;;;5097922;28;20196;-83
2021/11/07 05:31:18;;;;;;;5.15;3.88;;;9.50;99.90;;;;;;5097579;28;20196;-83
2021/11/07 05:33:45;;;;;;;1.55;1.45;;;9.50;99.90;;;;;;5098369;28;20283;-83
2021/11/07 05:36:12;;;;;;;0.88;0.80;;;9.50;99.90;;;;;;5097716;28;20231;-82
2021/11/07 05:38:39;;;;;;;3.72;3.25;;;9.50;99.90;;;;;;5097684;28;20227;-83
2021/11/07 05:41:06;;;;;;;4.15;3.90;;;9.50;99.90;;;;;;5097265;28;20207;-83
2021/11/07 05:43:33;;;;;;;1.45;1.02;;;9.50;99.90;;;;;;5097783;28;20257;-83
2021/11/07 05:46:00;;;;;;;13.70;2.95;;;9.50;99.90;;;;;;5097525;28;20215;-82
2021/11/07 05:48:28;;;;;;;7.88;5.85;;;9.50;99.90;;;;;;5114474;22;20216;-77
2021/11/07 05:50:55;;;;;;;3.70;2.97;;;9.50;99.90;;;;;;5092272;28;20202;-77
2021/11/07 05:53:22;;;;;;;4.82;3.53;;;9.50;99.90;;;;;;5093177;28;20295;-77
2021/11/07 05:55:49;;;;;;;0.50;0.43;;;9.50;99.90;;;;;;5092429;28;20216;-75
2021/11/07 05:58:15;;;;;;;2.67;2.15;;;9.50;99.90;;;;;;5092824;28;20677;-77
2021/11/07 06:00:44;;;;;;;1.27;1.13;;;9.60;99.90;;;;;;5093154;28;20570;-78
2021/11/07 06:03:10;;;;;;;5.38;4.10;;;9.60;99.90;;;;;;5092960;28;20634;-77
2021/11/07 06:05:39;;;;;;;1.95;1.85;;;9.60;99.90;;;;;;5092544;28;20704;-77
2021/11/07 06:08:06;;;;;;;6.88;6.55;;;9.60;99.90;;;;;;5092797;28;20311;-77
2021/11/07 06:10:33;;;;;;;0.50;0.40;;;9.60;99.90;;;;;;5092813;28;20193;-76
2021/11/07 06:13:00;;;;;;;3.47;3.20;;;9.60;99.90;;;;;;5092908;28;20207;-77
2021/11/07 06:15:27;;;;;;;0.50;0.50;;;9.60;99.90;;;;;;5092873;28;20224;-76
2021/11/07 06:17:56;;;;;;;6.07;5.53;;;9.70;99.90;;;;;;5092094;28;20231;-78
2021/11/07 06:20:23;;;;;;;1.95;1.50;;;9.70;99.90;;;;;;5092560;28;20222;-77
2021/11/07 06:22:51;;;;;;;1.33;1.23;;;9.70;99.90;;;;;;5092729;28;20436;-74
2021/11/07 06:25:18;;;;;;;1.10;1.05;;;9.70;99.90;;;;;;5092825;28;20535;-78
2021/11/07 06:27:44;;;;;;;0.50;0.40;;;9.70;99.90;;;;;;5092461;28;20220;-77
2021/11/07 06:30:12;;;;;;;1.55;1.45;;;9.70;99.90;;;;;;5092385;28;20267;-77
2021/11/07 06:32:39;;;;;;;0.63;0.63;;;9.70;99.90;;;;;;5092203;28;20212;-77
2021/11/07 06:35:09;;;;;;;0.80;0.80;;;9.80;99.90;;;;;;5092356;28;20209;-76
2021/11/07 06:37:36;;;;;;;0.50;0.40;;;9.80;99.90;;;;;;5092119;28;20239;-74
2021/11/07 06:40:05;;;;;;;1.70;1.23;;;9.70;99.90;;;;;;5092327;28;20200;-74
2021/11/07 06:42:31;;;;;;;3.65;3.35;;;9.80;99.90;;;;;;5092298;28;20196;-76
2021/11/07 06:44:59;;;;;;;0.50;0.40;;;9.80;99.90;;;;;;5092534;28;20205;-76
2021/11/07 06:47:27;;;;;;;1.90;1.80;;;9.70;99.90;;;;;;5092063;28;20262;-75
2021/11/07 06:49:55;;;;;;;1.05;1.02;;;9.70;99.90;;;;;;5091793;28;20283;-77
2021/11/07 06:52:22;;;;;;;6.50;4.65;;;9.70;99.90;;;;;;5091982;28;20200;-76
2021/11/07 06:54:50;;;;;;;0.50;0.40;;;9.80;99.90;;;;;;5092249;28;20226;-75
2021/11/07 06:57:18;;;;;;;2.05;1.90;;;9.80;99.90;;;;;;5091857;28;20777;-76
2021/11/07 06:59:45;;;;;;;0.50;0.50;;;9.80;99.90;;;;;;5092114;28;20203;-76
2021/11/07 07:02:12;;;;;;;2.03;1.58;;;9.80;99.90;;;;;;5091654;28;20198;-77
2021/11/07 07:04:39;;;;;;;0.50;0.30;;;9.80;99.90;;;;;;5091663;28;20201;-76
2021/11/07 07:07:06;;;;;;;1.35;1.27;;;9.70;99.90;;;;;;5091636;28;20215;-76
2021/11/07 07:09:41;;;;;;;0.65;0.52;;;9.70;99.90;;;;;;5092023;28;20207;-76
2021/11/07 07:12:11;;;;;;;1.02;1.02;;;9.80;99.90;;;;;;5091378;28;20645;-76
2021/11/07 07:14:46;;;;;;;8.85;2.45;;;9.80;99.90;;;;;;5091812;28;20205;-76
2021/11/07 07:17:23;;;;;;;0.82;0.68;;;9.80;99.90;;;;;;5091410;28;20231;-76
2021/11/07 07:19:59;;;;;;;4.03;3.63;;;9.80;99.90;;;;;;5091809;28;20263;-76
2021/11/07 07:22:47;;;;;;;1.50;1.48;;;9.80;99.90;;;;;;5091456;28;20203;-76
2021/11/07 07:31:21;;;;;;;0.65;0.52;;;9.80;99.90;;;;;;5091309;28;20175;-76
2021/11/07 07:33:50;;;;;;;0.50;0.40;;;9.90;99.90;;;;;;5091027;28;20658;-74
2021/11/07 07:36:17;;;;;;;0.50;0.30;;;9.90;99.90;;;;;;5091498;28;20219;-76
2021/11/07 07:38:44;;;;;;;0.50;0.40;;;9.90;99.90;;;;;;5091221;28;20220;-76
2021/11/07 07:41:11;;;;;;;0.50;0.40;;;9.90;99.90;;;;;;5091371;28;20623;-76
2021/11/07 07:43:39;;;;;;;0.90;0.77;;;9.90;99.90;;;;;;5091113;28;20197;-76
2021/11/07 07:46:11;;;;;;;1.20;1.15;;;9.90;99.90;;;;;;5091667;28;20192;-76
2021/11/07 07:48:41;;;;;;;0.50;0.40;;;10.00;99.90;;;;;;5091234;28;20287;-74
2021/11/07 07:51:08;;;;;;;0.50;0.40;;;10.00;99.90;;;;;;5091157;28;20192;-76
2021/11/07 07:53:35;;;;;;;0.50;0.40;;;9.90;99.90;;;;;;5091117;28;20196;-76
2021/11/07 07:56:03;;;;;;;0.93;0.80;;;9.90;99.90;;;;;;5091357;28;20614;-76
2021/11/07 07:58:30;;;;;;;0.75;0.60;;;10.00;99.90;;;;;;5091209;28;20227;-76
2021/11/07 08:00:57;;;;;;;1.57;0.97;;;10.00;99.90;;;;;;5091022;28;20201;-76
2021/11/07 08:03:25;;;;;;;0.60;0.60;;;10.00;99.90;;;;;;5091257;28;20936;-76
2021/11/07 08:05:53;;;;;;;0.50;0.40;;;10.00;99.90;;;;;;5090866;28;20206;-74
2021/11/07 08:08:20;;;;;;;2.08;1.98;;;10.10;99.90;;;;;;5091495;28;20311;-76
2021/11/07 08:10:47;;;;;;;2.75;2.55;;;10.10;99.90;;;;;;5090788;28;20220;-76
2021/11/07 08:13:14;;;;;;;1.30;1.02;;;10.10;99.90;;;;;;5091215;28;20197;-76
2021/11/07 08:15:41;;;;;;;0.50;0.40;;;10.10;99.90;;;;;;5090381;28;20212;-78
2021/11/07 08:18:08;;;;;;;0.50;0.40;;;10.10;99.90;;;;;;5091252;28;20217;-74
2021/11/07 08:20:36;;;;;;;6.10;4.88;;;10.20;99.90;;;;;;5093206;28;20207;-76
2021/11/07 08:23:03;;;;;;;3.40;1.33;;;10.20;99.90;;;;;;5095178;28;20197;-77
2021/11/07 08:25:31;;;;;;;2.67;0.93;;;10.20;99.90;;;;;;5094505;28;20208;-76
2021/11/07 08:28:01;;;;;;;5.07;3.55;;;10.30;99.90;;;;;;5094869;28;20216;-76
2021/11/07 08:30:30;;;;;;;2.50;2.35;;;10.30;99.90;;;;;;5094832;28;20236;-76
2021/11/07 08:32:57;;;;;;;1.17;1.17;;;10.30;99.90;;;;;;5094416;28;20196;-76
2021/11/07 08:35:24;;;;;;;1.70;1.63;;;10.30;99.90;;;;;;5094247;28;20484;-72
2021/11/07 08:37:56;;;;;;;1.07;1.00;;;10.30;99.90;;;;;;5094548;28;20720;-76
2021/11/07 08:40:28;;;;;;;1.55;1.00;;;10.40;99.90;;;;;;5094181;28;20507;-76
2021/11/07 08:43:00;;;;;;;3.42;2.85;;;10.40;99.90;;;;;;5094317;28;20576;-76
2021/11/07 09:02:08;;;;;;;1.03;1.03;;;11.10;99.90;;;;;;5093774;28;20395;-76
2021/11/07 09:04:52;;;;;;;0.68;0.50;;;11.20;99.90;;;;;;5093689;28;20439;-75
2021/11/07 09:07:21;;;;;;;5.45;2.88;;;11.40;99.90;;;;;;5094249;28;20227;-77
2021/11/07 09:09:57;;;;;;;0.80;0.80;;;12.00;99.90;;;;;;5093966;28;20196;-76
2021/11/07 09:12:24;;;;;;;0.50;0.40;;;12.80;99.90;;;;;;5093867;28;20416;-76
2021/11/07 09:14:51;;;;;;;0.50;0.30;;;13.30;99.90;;;;;;5094122;28;20436;-76
2021/11/07 09:17:18;;;;;;;1.10;0.93;;;13.40;99.90;;;;;;5093333;28;20484;-76
2021/11/07 09:19:48;;;;;;;0.50;0.40;;;13.30;99.90;;;;;;5093957;28;20442;-76
2021/11/07 09:22:18;;;;;;;0.50;0.40;;;13.30;99.90;;;;;;5093974;28;20437;-75
2021/11/07 09:24:51;;;;;;;0.80;0.80;;;13.10;99.90;;;;;;5093871;28;20832;-76
2021/11/07 09:27:23;;;;;;;29.47;2.57;;;12.90;99.90;;;;;;5093810;28;20494;-75
2021/11/07 09:29:58;;;;;;;0.67;0.67;;;12.70;99.90;;;;;;5093221;28;20530;-76
2021/11/07 09:32:38;;;;;;;1.27;0.87;;;12.70;99.90;;;;;;5092103;28;20415;-76
2021/11/07 09:35:18;;;;;;;0.57;0.57;;;12.80;99.90;;;;;;5094005;28;20424;-76
2021/11/07 09:37:49;;;;;;;0.50;0.40;;;12.80;99.90;;;;;;5093419;28;20501;-76
2021/11/07 09:40:17;;;;;;;3.53;2.40;;;12.90;99.90;;;;;;5092731;28;20527;-76
2021/11/07 09:45:43;;;;;;;0.50;0.40;;;13.10;99.90;;;;;;5089620;28;20427;-76
2021/11/07 09:48:14;;;;;;;6.13;1.13;;;13.50;99.90;;;;;;5093148;28;20467;-75
2021/11/07 09:50:43;;;;;;;0.53;0.37;;;13.60;99.90;;;;;;5093170;28;20448;-76
2021/11/07 09:53:09;;;;;;;3.07;1.20;;;13.80;99.90;;;;;;5092790;28;20805;-76
2021/11/07 09:55:36;;;;;;;0.60;0.40;;;13.70;99.90;;;;;;5093149;28;20435;-76
2021/11/07 09:58:05;;;;;;;0.50;0.40;;;13.80;99.90;;;;;;5093107;28;20516;-78
2021/11/07 10:00:39;;;;;;;0.60;0.60;;;13.80;99.90;;;;;;5093149;28;20809;-76
2021/11/07 10:03:06;;;;;;;0.50;0.40;;;13.80;99.90;;;;;;5093189;28;20414;-77
2021/11/07 10:05:37;;;;;;;0.60;0.60;;;13.70;99.90;;;;;;5092672;28;20431;-75
2021/11/07 10:08:06;;;;;;;0.90;0.90;;;13.60;99.90;;;;;;5093120;28;20508;-77
2021/11/07 10:10:37;;;;;;;0.50;0.30;;;13.50;99.90;;;;;;5093028;28;20808;-76
2021/11/07 10:13:13;;;;;;;0.50;0.30;;;13.40;99.90;;;;;;5093076;28;20794;-75
2021/11/07 10:15:45;;;;;;;0.50;0.40;;;13.20;99.90;;;;;;5092556;28;21027;-76
2021/11/07 10:18:21;;;;;;;0.50;0.40;;;13.00;99.90;;;;;;5092533;28;20444;-76
2021/11/07 10:20:50;;;;;;;0.50;0.40;;;12.80;99.90;;;;;;5092314;28;20439;-76
2021/11/07 10:23:23;;;;;;;0.60;0.50;;;12.70;99.90;;;;;;5092911;28;20529;-76
2021/11/07 10:25:58;;;;;;;0.70;0.60;;;12.60;99.90;;;;;;5092839;28;20518;-72
2021/11/07 10:28:31;;;;;;;0.60;0.60;;;12.50;99.90;;;;;;5092522;28;20451;-76
2021/11/07 10:31:12;;;;;;;1.13;1.03;;;12.50;99.90;;;;;;5092219;28;20457;-76
2021/11/07 10:34:04;;;;;;;0.50;0.50;;;12.60;99.90;;;;;;5092125;28;20459;-76
2021/11/07 10:39:40;;;;;;;0.50;0.40;;;12.70;99.90;;;;;;5092223;28;20395;-76
2021/11/07 10:42:21;;;;;;;0.50;0.33;;;12.80;99.90;;;;;;5091896;28;20432;-76
2021/11/07 10:53:19;;;;;;;0.50;0.40;;;12.50;99.90;;;;;;5068873;28;20944;-77
2021/11/07 10:55:49;;;;;;;0.50;0.40;;;12.60;99.90;;;;;;5068862;28;20444;-78
2021/11/07 10:58:24;;;;;;;1.17;1.07;;;12.90;99.90;;;;;;5069690;28;20457;-77
2021/11/07 11:00:51;;;;;;;0.50;0.40;;;13.30;99.90;;;;;;5068714;28;20463;-78
2021/11/07 11:03:20;;;;;;;0.50;0.40;;;13.80;99.90;;;;;;5069176;28;20467;-78
2021/11/07 11:05:51;;;;;;;0.50;0.40;;;14.00;99.90;;;;;;5070667;28;20432;-77
2021/11/07 11:08:22;;;;;;;0.50;0.40;;;14.30;99.90;;;;;;5068344;28;20462;-78
2021/11/07 11:10:59;;;;;;;0.60;0.53;;;14.60;99.90;;;;;;5068362;28;20476;-78
2021/11/07 11:13:32;;;;;;;3.33;0.90;;;14.40;99.90;;;;;;5068600;28;20922;-76
2021/11/07 11:16:24;;;;;;;1.97;0.73;;;14.20;99.90;;;;;;5068292;28;20453;-77
2021/11/07 11:22:02;;;;;;;14.03;12.83;;;14.30;99.90;;;;;;5067609;28;20403;-77
2021/11/07 11:24:47;;;;;;;0.50;0.30;;;14.20;99.90;;;;;;5068639;28;20428;-77
2021/11/07 11:30:12;;;;;;;1.43;1.33;;;14.20;99.90;;;;;;5068059;28;20451;-77
2021/11/07 11:32:47;;;;;;;0.50;0.30;;;14.50;99.90;;;;;;5068084;28;20440;-77
2021/11/07 11:35:18;;;;;;;0.67;0.67;;;15.00;99.90;;;;;;5068106;28;20941;-77
2021/11/07 11:37:56;;;;;;;0.50;0.30;;;14.70;99.90;;;;;;5067932;28;20818;-77
2021/11/07 11:40:26;;;;;;;10.23;1.37;;;14.60;99.90;;;;;;5067605;28;20650;-77
2021/11/07 11:42:56;;;;;;;4.33;0.50;;;14.10;99.90;;;;;;5067598;28;20447;-77
2021/11/07 11:45:27;;;;;;;1.60;1.33;;;13.60;99.90;;;;;;5067892;28;20456;-77
2021/11/07 11:48:15;;;;;;;0.60;0.50;;;13.40;99.90;;;;;;5067604;28;20464;-77
2021/11/07 11:51:08;;;;;;;0.50;0.40;;;13.20;99.90;;;;;;5068868;28;20414;-77
2021/11/07 11:54:14;;;;;;;0.50;0.40;;;13.20;99.90;;;;;;5067986;28;20440;-77
2021/11/07 11:56:46;;;;;;;1.63;1.53;;;13.20;99.90;;;;;;5067318;28;20472;-77
2021/11/07 11:59:28;;;;;;;0.50;0.40;;;13.40;99.90;;;;;;5067656;28;20452;-77
2021/11/07 12:02:13;;;;;;;0.60;0.60;;;13.70;99.90;;;;;;5053335;28;20432;-78
2021/11/07 12:05:00;;;;;;;0.50;0.40;;;14.10;99.90;;;;;;5054582;28;20422;-77
2021/11/07 12:07:33;;;;;;;0.50;0.40;;;14.30;99.90;;;;;;5054334;28;20792;-77
2021/11/07 12:10:07;;;;;;;0.70;0.70;;;14.10;99.90;;;;;;5053886;28;20977;-77
2021/11/07 12:12:40;;;;;;;0.50;0.40;;;13.80;99.90;;;;;;5053806;28;20447;-77
2021/11/07 12:15:13;;;;;;;0.50;0.40;;;13.60;99.90;;;;;;5054087;28;20487;-77
2021/11/07 12:17:44;;;;;;;0.50;0.40;;;13.70;99.90;;;;;;5054251;28;20460;-74
2021/11/07 12:20:26;;;;;;;0.50;0.30;;;13.60;99.90;;;;;;5054029;28;20481;-77
2021/11/07 12:23:15;;;;;;;0.50;0.40;;;13.60;99.90;;;;;;5052238;28;20450;-77
2021/11/07 12:25:44;;;;;;;0.50;0.30;;;13.60;99.90;;;;;;5054177;28;20437;-76
2021/11/07 12:28:11;;;;;;;0.73;0.50;;;13.40;99.90;;;;;;5053949;28;20483;-75
2021/11/07 12:30:40;;;;;;;1.77;1.67;;;13.20;99.90;;;;;;5053592;28;20465;-78
2021/11/07 12:33:10;;;;;;;0.50;0.40;;;13.10;99.90;;;;;;5053122;28;20448;-77
2021/11/07 12:35:42;;;;;;;0.50;0.30;;;12.80;99.90;;;;;;5053999;28;20441;-78
2021/11/07 12:41:16;;;;;;;0.50;0.40;;;12.50;99.90;;;;;;5053323;28;20416;-76
2021/11/07 12:43:45;;;;;;;0.50;0.40;;;12.50;99.90;;;;;;5053718;28;20424;-76
2021/11/07 12:46:23;;;;;;;2.10;1.90;;;12.60;99.90;;;;;;5053480;28;20437;-75
2021/11/07 12:48:53;;;;;;;0.50;0.40;;;12.60;99.90;;;;;;5053223;28;20480;-76
2021/11/07 12:51:22;;;;;;;3.13;1.87;;;12.50;99.90;;;;;;5053455;28;20452;-76
2021/11/07 12:54:14;;;;;;;1.00;0.90;;;12.60;99.90;;;;;;5053499;28;20438;-72
2021/11/07 12:56:51;;;;;;;0.50;0.40;;;12.60;99.90;;;;;;5053224;28;20434;-78
2021/11/07 12:59:22;;;;;;;0.57;0.53;;;12.80;99.90;;;;;;5053457;28;20446;-77
2021/11/07 13:02:15;;;;;;;4.63;0.93;;;12.90;99.90;;;;;;5053057;28;20437;-77
2021/11/07 13:04:49;;;;;;;0.50;0.40;;;12.80;99.90;;;;;;5050798;28;20498;-75
2021/11/07 13:07:22;;;;;;;6.43;0.73;;;12.60;99.90;;;;;;5052935;28;20557;-76
2021/11/07 13:09:56;;;;;;;0.50;0.40;;;12.40;99.90;;;;;;5052871;28;20558;-75
2021/11/07 13:12:28;;;;;;;5.20;1.87;;;12.40;99.90;;;;;;5051865;28;20586;-76
2021/11/07 13:29:29;;;;;;;0.50;0.40;;;12.80;99.90;;;;;;5052217;28;20473;-77
2021/11/07 13:32:10;;;;;;;0.90;0.70;;;12.80;99.90;;;;;;5052572;28;20799;-76
2021/11/07 13:34:37;;;;;;;1.27;1.17;;;12.90;99.90;;;;;;5052499;28;20595;-76
2021/11/07 13:37:07;;;;;;;0.53;0.40;;;13.00;99.90;;;;;;5052240;28;20464;-77
2021/11/07 13:39:36;;;;;;;0.50;0.40;;;13.10;99.90;;;;;;5052100;28;20448;-77
2021/11/07 13:42:09;;;;;;;0.50;0.40;;;13.10;99.90;;;;;;5052356;28;20441;-77
2021/11/07 13:44:47;;;;;;;0.50;0.40;;;13.10;99.90;;;;;;5052673;28;20485;-77
2021/11/07 13:47:14;;;;;;;0.50;0.40;;;13.20;99.90;;;;;;5052404;28;20640;-77
2021/11/07 13:49:52;;;;;;;0.50;0.40;;;13.30;99.90;;;;;;5051930;28;20477;-77
2021/11/07 13:52:19;;;;;;;3.03;1.80;;;13.50;99.90;;;;;;5052095;28;20427;-77
2021/11/07 13:54:48;;;;;;;0.60;0.50;;;14.20;99.90;;;;;;5052023;28;20437;-77
2021/11/07 13:57:15;;;;;;;0.50;0.40;;;14.50;99.90;;;;;;5052537;28;20464;-77
2021/11/07 13:59:45;;;;;;;0.50;0.40;;;14.70;99.90;;;;;;5052213;28;20448;-77
2021/11/07 14:02:15;;;;;;;2.77;1.03;;;14.90;99.90;;;;;;5051678;28;20431;-77
2021/11/07 14:04:45;;;;;;;0.60;0.50;;;14.60;99.90;;;;;;5051861;28;20871;-77
2021/11/07 14:07:17;;;;;;;0.50;0.40;;;14.20;99.90;;;;;;5051951;28;20457;-78
2021/11/07 14:10:07;;;;;;;0.50;0.40;;;13.90;99.90;;;;;;5051871;28;20473;-74